Elgin, North Dakota
Current Conditions -  °F | °C
As of 2:35 PM on Wednesday 26 Nov 2014 (Local Time) from KD57 Reporting Station
Overcast Overcast  
Wind Chill:   Ceiling: 1300
Heat Index: 14°   Visibility: 10mi
Dew Point:   Wind: 6mph
Humidity: 73%   Direction: 60°ENE
Pressure: 30.35"   Gusts: NA
Location:  46.4°N, 101.85°W
Report Text: KD57 262135Z AUTO 06005KT 10SM SCT008 BKN013 OVC060 M10/M14 A3035 RMK AO2 TSNO
Loading
Personal Weather Stations






























Interactive Weather Map New forecast layout! Learn more

10-Day Weather Forecast

Advertisements
Track Severe Weather on mobile